Pacific - Georgia Basin: Past 24 Hour Conditions

 

Vancouver Int'l Airport

03:00 AM PDT 23 April 2014
This table is a summary of hourly weather conditions for the past 24 hours.
Date / Time
(PDT)
Wind(knots) Conditions Visibility(km) Pressure(kPa) Air tempC) Relative humidity(%) Dew pointC)
23 April 2014
3:00 ENE 9 Mainly Clear 19 101.1 7 92 6
2:00 ENE 7 Partly Cloudy 19 101.1 7 90 6
1:00 NE 6 Partly Cloudy 19 101.1 7 90 6
0:00 ENE 6 Mostly Cloudy 19 101.0 7 91 6
22 April 2014
23:00 ENE 8 Light Rain 16 101.0 8 89 6
22:00 NW 2 Light Rain 19 101.1 9 81 6
21:00 WSW 5 Mostly Cloudy 24 101.1 9 79 6
20:00 S 8 Partly Cloudy 32 101.0 10 62 3
19:00 SSE 10 Mostly Cloudy 32 101.0 11 59 3
18:00 S 10 Mainly Sunny 48 101.0 12 54 3
17:00 S 12 gust 19 Mainly Sunny 48 101.1 12 59 4
16:00 SSE 12 gust 18 Mainly Sunny 48 101.1 14 47 3
15:00 S 8 Mainly Sunny 48 101.1 14 46 2
14:00 SW 6 Mainly Sunny 48 101.1 12 45 1
13:00 SW 6 Mainly Sunny 32 101.1 11 54 2
12:00 SW 6 Partly Cloudy 32 101.1 11 63 4
11:00 SSW 9 Mainly Sunny 32 101.0 9 69 4
10:00 SW 15 Partly Cloudy 48 101.0 10 71 5
9:00 WSW 12 gust 18 Partly Cloudy 24 100.9 9 82 6
8:00 WSW 13 Partly Cloudy 24 100.9 8 84 6
7:00 W 17 Partly Cloudy 32 100.9 8 82 5
6:00 W 16 Partly Cloudy 24 100.9 8 85 6
5:00 W 18 Partly Cloudy 24 100.9 8 88 6
4:00 W 16 Mostly Cloudy 24 100.9 8 89 7
3:00 W 16 Partly Cloudy 19 100.9 8 90 7
 
Map of Pacific - Georgia Basin marine weather areas Tsawwassen Ferry Terminal Sentry Shoal - 46131 Halibut Bank - 46146 La Perouse Bank - 46206 Discovery Island Esquimalt Harbour Kelp Reefs Malahat Race Rocks Lightstation Saturna Island Sheringham Point University of Victoria Victoria Gonzales Victoria Int'l Airport Ballenas Islands Campbell River Airport Comox Airport Entrance Island Fanny Island Nanaimo Airport Sisters Islets Estevan Point Tofino Airport Grief Point Powell River Airport Sechelt Point Atkinson Sand Heads Lightstation Vancouver Harbour Vancouver Int'l Airport West Vancouver Port Alberni Howe Sound - Pam Rocks Squamish Airport